createdAt,value
2017-12-04T14:20:03.931Z,19.87
2017-12-04T14:21:13.084Z,19.83
2017-12-04T14:22:22.740Z,19.86
2017-12-04T14:23:31.954Z,19.83
2017-12-04T14:24:40.876Z,19.87
2017-12-04T14:25:49.541Z,19.84
2017-12-04T14:26:58.720Z,19.73
2017-12-04T14:28:07.638Z,19.62
2017-12-04T14:29:16.551Z,19.51
2017-12-04T14:30:25.747Z,19.48
2017-12-04T14:31:35.233Z,19.36
2017-12-04T14:32:44.472Z,19.36
2017-12-04T14:33:53.151Z,19.37
2017-12-04T14:35:02.074Z,19.4
2017-12-04T14:36:11.015Z,19.55
2017-12-04T14:37:20.462Z,19.51
2017-12-04T14:38:29.898Z,19.54
2017-12-04T14:39:39.376Z,19.59
2017-12-04T14:40:48.317Z,19.56
2017-12-04T14:41:57.240Z,19.66
2017-12-04T14:43:06.154Z,19.61
2017-12-04T14:44:15.617Z,19.65
2017-12-04T14:45:24.484Z,19.69
2017-12-04T14:46:33.457Z,19.66
2017-12-04T14:47:42.623Z,19.74
2017-12-04T14:48:51.809Z,19.81
2017-12-04T14:50:00.991Z,19.8
2017-12-04T14:51:10.693Z,19.84
2017-12-04T14:52:20.122Z,19.77
2017-12-04T14:53:29.349Z,19.83
2017-12-04T14:54:38.269Z,19.84
2017-12-04T14:55:47.452Z,19.83
2017-12-04T14:56:56.626Z,19.94
2017-12-04T14:58:05.805Z,19.88
2017-12-04T14:59:14.767Z,19.94
2017-12-04T15:00:23.687Z,20.05
2017-12-04T15:01:32.605Z,19.99
2017-12-04T15:02:41.520Z,20.02
2017-12-04T15:03:50.701Z,20.06
2017-12-04T15:04:59.909Z,20.05
2017-12-04T15:06:09.351Z,20.02
2017-12-04T15:07:18.799Z,20.1
2017-12-04T15:08:27.718Z,20.11
2017-12-04T15:09:36.643Z,20.06
2017-12-04T15:10:45.620Z,20.08
2017-12-04T15:11:55.312Z,20.11
2017-12-04T15:13:04.004Z,20.16
2017-12-04T15:14:13.440Z,20.14
2017-12-04T15:15:22.597Z,20.1
2017-12-04T15:16:31.790Z,20.16
2017-12-04T15:17:40.962Z,20.1
2017-12-04T15:18:50.156Z,20.17
2017-12-04T15:19:59.334Z,20.1
2017-12-04T15:21:07.993Z,20.1
2017-12-04T15:22:17.446Z,20.17
2017-12-04T15:23:26.938Z,20.1
2017-12-04T15:24:36.156Z,20.2
2017-12-04T15:25:44.805Z,20.08
2017-12-04T15:26:53.458Z,20.11
2017-12-04T15:28:02.894Z,20.11
2017-12-04T15:29:11.860Z,20.18
2017-12-04T15:30:20.794Z,20.13
2017-12-04T15:31:29.972Z,20.18
2017-12-04T15:32:39.168Z,20.17
2017-12-04T15:33:48.335Z,20.26
2017-12-04T15:34:57.611Z,20.16
2017-12-04T15:36:07.078Z,20.2
2017-12-04T15:37:15.749Z,20.13
2017-12-04T15:38:24.654Z,20.16
2017-12-04T15:39:33.843Z,20.26
2017-12-04T15:40:43.023Z,20.23
2017-12-04T15:41:51.998Z,20.21
2017-12-04T15:43:00.726Z,20.2
2017-12-04T15:44:09.920Z,20.18
2017-12-04T15:45:18.835Z,20.16
2017-12-04T15:46:27.750Z,20.18
2017-12-04T15:47:37.444Z,20.16
2017-12-04T15:48:46.620Z,20.18
2017-12-04T15:49:55.316Z,20.16
2017-12-04T15:51:04.026Z,20.23
2017-12-04T15:52:12.949Z,20.2
2017-12-04T15:53:22.161Z,20.21
2017-12-04T15:54:31.370Z,20.24
2017-12-04T15:55:40.326Z,20.17
2017-12-04T15:56:49.519Z,20.28
2017-12-04T15:57:58.202Z,20.16
2017-12-04T15:59:06.874Z,20.26
2017-12-04T16:00:16.343Z,20.21
2017-12-04T16:01:25.794Z,20.26
2017-12-04T16:02:35.011Z,20.29
2017-12-04T16:03:45.003Z,20.28
2017-12-04T16:04:54.168Z,20.2
2017-12-04T16:06:02.838Z,20.26
2017-12-04T16:07:12.550Z,20.17
2017-12-04T16:08:21.738Z,20.29
2017-12-04T16:09:30.634Z,20.29
2017-12-04T16:10:40.077Z,20.24
2017-12-04T16:11:49.003Z,20.29
2017-12-04T16:12:57.948Z,20.29
2017-12-04T16:14:06.872Z,20.29
2017-12-04T16:15:15.518Z,20.28
2017-12-04T16:16:24.707Z,20.21
2017-12-04T16:17:33.400Z,20.31
2017-12-04T16:18:42.594Z,20.31
2017-12-04T16:19:51.285Z,20.31
2017-12-04T16:21:00.473Z,20.33
2017-12-04T16:22:09.934Z,20.28
2017-12-04T16:23:18.614Z,20.28
2017-12-04T16:24:27.799Z,20.29
2017-12-04T16:25:37.040Z,20.28
2017-12-04T16:26:45.991Z,20.32
2017-12-04T16:27:54.920Z,20.42
2017-12-04T16:29:04.114Z,20.33
2017-12-04T16:30:13.293Z,20.32
2017-12-04T16:31:22.500Z,20.36
2017-12-04T16:32:31.703Z,20.29
2017-12-04T16:33:40.618Z,20.35
2017-12-04T16:34:50.117Z,20.29
2017-12-04T16:35:58.827Z,20.31
2017-12-04T16:37:07.755Z,20.26
2017-12-04T16:38:16.949Z,20.32
2017-12-04T16:39:26.149Z,20.33
2017-12-04T16:40:35.068Z,20.31
2017-12-04T16:41:44.001Z,20.29
2017-12-04T16:42:53.186Z,20.33
2017-12-04T16:44:02.376Z,20.36
2017-12-04T16:45:11.061Z,20.28
2017-12-04T16:46:20.520Z,20.35
2017-12-04T16:47:29.160Z,20.31
2017-12-04T16:48:38.134Z,20.41
2017-12-04T16:49:47.353Z,20.39
2017-12-04T16:50:56.374Z,20.33
2017-12-04T16:52:05.283Z,20.32
2017-12-04T16:53:14.979Z,20.28
2017-12-04T16:54:23.917Z,20.28
2017-12-04T16:55:33.103Z,20.38
2017-12-04T16:56:42.816Z,20.32
2017-12-04T16:57:51.755Z,20.31
2017-12-04T16:59:00.691Z,20.29
2017-12-04T17:00:09.607Z,20.31
2017-12-04T17:01:18.778Z,20.29
2017-12-04T17:02:27.742Z,20.26
2017-12-04T17:03:37.220Z,20.36
2017-12-04T17:04:46.170Z,20.35
2017-12-04T17:05:55.365Z,20.38
2017-12-04T17:07:04.587Z,20.31
2017-12-04T17:08:13.807Z,20.36
2017-12-04T17:09:22.747Z,20.28
2017-12-04T17:10:31.457Z,20.36
2017-12-04T17:11:40.369Z,20.32
2017-12-04T17:12:49.348Z,20.32
2017-12-04T17:13:58.272Z,20.36
2017-12-04T17:15:07.180Z,20.33
2017-12-04T17:16:16.372Z,20.33
2017-12-04T17:17:25.586Z,20.32
2017-12-04T17:18:34.521Z,20.38
2017-12-04T17:19:43.186Z,20.33
2017-12-04T17:20:52.107Z,20.28
2017-12-04T17:22:01.022Z,20.33
2017-12-04T17:23:11.182Z,20.32
2017-12-04T17:24:20.629Z,20.29
2017-12-04T17:25:30.081Z,20.26
2017-12-04T17:26:39.258Z,20.29
2017-12-04T17:27:48.550Z,20.31
2017-12-04T17:28:58.146Z,20.29
2017-12-04T17:30:07.332Z,20.28
2017-12-04T17:31:16.739Z,20.36
2017-12-04T17:32:25.907Z,20.28
2017-12-04T17:33:34.852Z,20.38
2017-12-04T17:34:44.360Z,20.24
2017-12-04T17:35:53.805Z,20.29
2017-12-04T17:37:03.311Z,20.35
2017-12-04T17:38:13.118Z,20.33
2017-12-04T17:39:23.046Z,20.32
2017-12-04T17:40:32.257Z,20.33
2017-12-04T17:41:41.234Z,20.29
2017-12-04T17:42:50.006Z,20.32
2017-12-04T17:43:59.452Z,20.33
2017-12-04T17:45:08.918Z,20.31
2017-12-04T17:46:17.606Z,20.23
2017-12-04T17:47:26.613Z,20.24
2017-12-04T17:48:35.540Z,20.28
2017-12-04T17:49:44.473Z,20.31
2017-12-04T17:50:53.391Z,20.32
2017-12-04T17:52:02.338Z,20.32
2017-12-04T17:53:11.014Z,20.31
2017-12-04T17:54:20.212Z,20.36
2017-12-04T17:55:29.648Z,20.29
2017-12-04T17:56:38.618Z,20.31
2017-12-04T17:57:47.781Z,20.42
2017-12-04T17:58:56.983Z,20.35
2017-12-04T18:00:06.470Z,20.42
2017-12-04T18:01:15.650Z,20.38
2017-12-04T18:02:24.868Z,20.39
2017-12-04T18:03:34.106Z,20.33
2017-12-04T18:04:43.371Z,20.41
2017-12-04T18:05:52.862Z,20.36
2017-12-04T18:07:02.118Z,20.35
2017-12-04T18:08:11.578Z,20.41
2017-12-04T18:09:20.545Z,20.41
2017-12-04T18:10:30.267Z,20.36
2017-12-04T18:11:39.197Z,20.31
2017-12-04T18:12:48.132Z,20.38
2017-12-04T18:13:57.305Z,20.35
2017-12-04T18:15:05.966Z,20.36
2017-12-04T18:16:15.144Z,20.38
2017-12-04T18:17:24.333Z,20.39
2017-12-04T18:18:33.616Z,20.42
2017-12-04T18:19:42.662Z,20.29
2017-12-04T18:20:52.424Z,20.42
2017-12-04T18:22:02.969Z,20.35
2017-12-04T18:23:12.700Z,20.41
2017-12-04T18:24:22.390Z,20.38
2017-12-04T18:25:31.846Z,20.33
2017-12-04T18:26:40.789Z,20.32
2017-12-04T18:27:49.475Z,20.32
2017-12-04T18:28:58.231Z,20.41
2017-12-04T18:30:07.435Z,20.39
2017-12-04T18:31:16.640Z,20.33
2017-12-04T18:32:25.324Z,20.41
2017-12-04T18:33:34.015Z,20.31
2017-12-04T18:34:43.483Z,20.38
2017-12-04T18:35:53.493Z,20.41
2017-12-04T18:37:02.507Z,20.36
2017-12-04T18:38:12.238Z,20.35
2017-12-04T18:39:21.954Z,20.42
2017-12-04T18:40:31.623Z,20.41
2017-12-04T18:41:40.709Z,20.35
2017-12-04T18:42:49.410Z,20.35
2017-12-04T18:43:58.096Z,20.35
2017-12-04T18:45:07.417Z,20.42
2017-12-04T18:46:16.868Z,20.31
2017-12-04T18:47:26.029Z,20.31
2017-12-04T18:48:34.681Z,20.28
2017-12-04T18:49:43.915Z,20.41
2017-12-04T18:50:52.618Z,20.33
2017-12-04T18:52:01.591Z,20.38
2017-12-04T18:53:10.572Z,20.38
2017-12-04T18:54:19.768Z,20.41
2017-12-04T18:55:28.712Z,20.42
2017-12-04T18:56:38.211Z,20.38
2017-12-04T18:57:47.660Z,20.39
2017-12-04T18:58:56.940Z,20.36
2017-12-04T19:00:05.874Z,20.32
2017-12-04T19:01:15.326Z,20.36
2017-12-04T19:02:24.516Z,20.31
2017-12-04T19:03:33.501Z,20.33
2017-12-04T19:04:42.196Z,20.38
2017-12-04T19:05:51.324Z,20.33
2017-12-04T19:07:01.136Z,20.38
2017-12-04T19:08:10.358Z,20.38
2017-12-04T19:09:19.340Z,20.38
2017-12-04T19:10:28.547Z,20.39
2017-12-04T19:11:37.557Z,20.33
2017-12-04T19:12:46.774Z,20.39
2017-12-04T19:13:55.983Z,20.39
2017-12-04T19:15:05.205Z,20.39
2017-12-04T19:16:14.394Z,20.38
2017-12-04T19:17:23.575Z,20.41
2017-12-04T19:18:32.249Z,20.39
2017-12-04T19:19:41.865Z,20.41
2017-12-04T19:20:51.172Z,20.42
2017-12-04T19:22:00.345Z,20.41
2017-12-04T19:23:09.607Z,20.43
2017-12-04T19:24:18.602Z,20.52
2017-12-04T19:25:27.537Z,20.41
2017-12-04T19:26:37.263Z,20.39
2017-12-04T19:27:46.570Z,20.42
2017-12-04T19:28:55.839Z,20.47
2017-12-04T19:30:04.754Z,20.43
2017-12-04T19:31:13.941Z,20.52
2017-12-04T19:32:23.124Z,20.5
2017-12-04T19:33:32.587Z,20.5
2017-12-04T19:34:42.076Z,20.48
2017-12-04T19:35:51.284Z,20.52
2017-12-04T19:37:00.497Z,20.41
2017-12-04T19:38:09.927Z,20.5
2017-12-04T19:39:19.404Z,20.52
2017-12-04T19:40:28.596Z,20.42
2017-12-04T19:41:37.515Z,20.43
2017-12-04T19:42:46.433Z,20.42
2017-12-04T19:43:55.358Z,20.43
2017-12-04T19:45:04.551Z,20.41
2017-12-04T19:46:14.005Z,20.42
2017-12-04T19:47:23.177Z,20.5
2017-12-04T19:48:32.391Z,20.42
2017-12-04T19:49:41.821Z,20.43
2017-12-04T19:50:50.739Z,20.39
2017-12-04T19:51:59.653Z,20.38
2017-12-04T19:53:08.614Z,20.41
2017-12-04T19:54:17.788Z,20.36
2017-12-04T19:55:26.968Z,20.42
2017-12-04T19:56:36.534Z,20.39
2017-12-04T19:57:46.688Z,20.33
2017-12-04T19:58:55.891Z,20.41
2017-12-04T20:00:05.070Z,20.36
2017-12-04T20:01:14.231Z,20.36
2017-12-04T20:02:23.169Z,20.36
2017-12-04T20:03:32.134Z,20.35
2017-12-04T20:04:41.086Z,20.32
2017-12-04T20:05:49.771Z,20.36
2017-12-04T20:06:58.728Z,20.32
2017-12-04T20:08:07.670Z,20.39
2017-12-04T20:09:16.661Z,20.36
2017-12-04T20:10:26.107Z,20.38
2017-12-04T20:11:35.296Z,20.35
2017-12-04T20:12:44.258Z,20.41
2017-12-04T20:13:53.445Z,20.42
2017-12-04T20:15:02.638Z,20.41
2017-12-04T20:16:11.836Z,20.38
2017-12-04T20:17:21.255Z,20.33
2017-12-04T20:18:30.174Z,20.39
2017-12-04T20:19:39.362Z,20.39
2017-12-04T20:20:48.026Z,20.32
2017-12-04T20:21:57.711Z,20.39
2017-12-04T20:23:06.962Z,20.39
2017-12-04T20:24:16.131Z,20.35
2017-12-04T20:25:25.299Z,20.33
2017-12-04T20:26:33.975Z,20.41
2017-12-04T20:27:42.892Z,20.35
2017-12-04T20:28:52.079Z,20.35
2017-12-04T20:30:01.267Z,20.36
2017-12-04T20:31:10.502Z,20.36
2017-12-04T20:32:19.422Z,20.24
2017-12-04T20:33:29.117Z,20.32
2017-12-04T20:34:38.317Z,20.35
2017-12-04T20:35:47.538Z,20.32
2017-12-04T20:36:56.713Z,20.31
2017-12-04T20:38:06.212Z,20.28
2017-12-04T20:39:14.877Z,20.29
2017-12-04T20:40:23.782Z,20.31
2017-12-04T20:41:33.505Z,20.28
2017-12-04T20:42:42.793Z,20.33
2017-12-04T20:43:51.470Z,20.32
2017-12-04T20:45:00.431Z,20.28
2017-12-04T20:46:09.888Z,20.31
2017-12-04T20:47:19.893Z,20.29
2017-12-04T20:48:29.077Z,20.23
2017-12-04T20:49:38.270Z,20.31
2017-12-04T20:50:47.463Z,20.29
2017-12-04T20:51:57.131Z,20.31
2017-12-04T20:53:06.535Z,20.17
2017-12-04T20:54:15.996Z,20.26
2017-12-04T20:55:25.375Z,20.33
2017-12-04T20:56:34.844Z,20.28
2017-12-04T20:57:44.320Z,20.28
2017-12-04T20:58:53.849Z,20.28
2017-12-04T21:00:03.559Z,20.29
2017-12-04T21:01:12.653Z,20.28
2017-12-04T21:02:21.574Z,20.29
2017-12-04T21:03:30.492Z,20.26
2017-12-04T21:04:40.297Z,20.28
2017-12-04T21:05:50.221Z,20.31
2017-12-04T21:06:59.752Z,20.28
2017-12-04T21:08:09.200Z,20.28
2017-12-04T21:09:19.115Z,20.28
2017-12-04T21:10:28.965Z,20.16
2017-12-04T21:11:38.762Z,20.29
2017-12-04T21:12:48.693Z,20.31
2017-12-04T21:13:57.485Z,20.29
2017-12-04T21:15:06.488Z,20.29
2017-12-04T21:16:15.421Z,20.28
2017-12-04T21:17:24.076Z,20.2
2017-12-04T21:18:32.991Z,20.26
2017-12-04T21:19:42.200Z,20.28
2017-12-04T21:20:51.399Z,20.32
2017-12-04T21:22:00.851Z,20.21
2017-12-04T21:23:10.026Z,20.28
2017-12-04T21:24:18.946Z,20.26
2017-12-04T21:25:27.928Z,20.18
2017-12-04T21:26:37.363Z,20.21
2017-12-04T21:27:46.786Z,20.2
2017-12-04T21:28:55.971Z,20.16
2017-12-04T21:30:04.917Z,20.16
2017-12-04T21:31:14.098Z,20.32
2017-12-04T21:32:23.040Z,20.18
2017-12-04T21:33:31.686Z,20.26
2017-12-04T21:34:41.456Z,20.23
2017-12-04T21:35:50.382Z,20.24
2017-12-04T21:36:59.307Z,20.21
2017-12-04T21:38:08.482Z,20.14
2017-12-04T21:39:17.148Z,20.21
2017-12-04T21:40:26.858Z,20.18
2017-12-04T21:41:35.770Z,20.17
2017-12-04T21:42:45.207Z,20.2
2017-12-04T21:43:54.389Z,20.21
2017-12-04T21:45:03.299Z,20.18
2017-12-04T21:46:12.486Z,20.16
2017-12-04T21:47:21.419Z,20.28
2017-12-04T21:48:30.059Z,20.2
2017-12-04T21:49:38.722Z,20.21
2017-12-04T21:50:47.896Z,20.24
2017-12-04T21:51:56.817Z,20.21
2017-12-04T21:53:06.019Z,20.2
2017-12-04T21:54:14.919Z,20.13
2017-12-04T21:55:23.834Z,20.14
2017-12-04T21:56:32.747Z,20.21
2017-12-04T21:57:41.669Z,20.18
2017-12-04T21:58:50.578Z,20.18
2017-12-04T22:00:00.005Z,20.17
2017-12-04T22:01:09.500Z,20.24
2017-12-04T22:02:18.425Z,20.21
2017-12-04T22:03:27.586Z,20.21
2017-12-04T22:04:36.504Z,20.23
2017-12-04T22:05:45.440Z,20.21
2017-12-04T22:06:54.626Z,20.13
2017-12-04T22:08:03.299Z,20.24
2017-12-04T22:09:12.745Z,20.16
2017-12-04T22:10:21.926Z,20.21
2017-12-04T22:11:31.361Z,20.21
2017-12-04T22:12:40.523Z,20.2
2017-12-04T22:13:49.429Z,20.2
2017-12-04T22:14:58.335Z,20.16
2017-12-04T22:16:07.508Z,20.17
2017-12-04T22:17:16.741Z,20.24
2017-12-04T22:18:26.167Z,20.16
2017-12-04T22:19:35.587Z,20.18
2017-12-04T22:20:44.749Z,20.18
2017-12-04T22:21:53.678Z,20.2
2017-12-04T22:23:02.855Z,20.18
2017-12-04T22:24:12.581Z,20.2
2017-12-04T22:25:21.765Z,20.26
2017-12-04T22:26:31.204Z,20.21
2017-12-04T22:27:39.917Z,20.2
2017-12-04T22:28:49.084Z,20.21
2017-12-04T22:29:58.269Z,20.28
2017-12-04T22:31:07.435Z,20.17
2017-12-04T22:32:16.349Z,20.17
2017-12-04T22:33:25.540Z,20.23
2017-12-04T22:34:34.521Z,20.17
2017-12-04T22:35:43.442Z,20.2
2017-12-04T22:36:52.374Z,20.21
2017-12-04T22:38:01.283Z,20.17
2017-12-04T22:39:10.723Z,20.21
2017-12-04T22:40:19.632Z,20.24
2017-12-04T22:41:28.571Z,20.2
2017-12-04T22:42:37.222Z,20.18
2017-12-04T22:43:46.426Z,20.21
2017-12-04T22:44:55.363Z,20.21
2017-12-04T22:46:04.534Z,20.18
2017-12-04T22:47:13.735Z,20.21
2017-12-04T22:48:22.657Z,20.2
2017-12-04T22:49:31.576Z,20.2
2017-12-04T22:50:40.819Z,20.2
2017-12-04T22:51:49.737Z,20.21
2017-12-04T22:52:58.652Z,20.21
2017-12-04T22:54:07.566Z,20.2
2017-12-04T22:55:16.738Z,20.17
2017-12-04T22:56:25.677Z,20.11
2017-12-04T22:57:34.845Z,20.21
2017-12-04T22:58:43.791Z,20.24
2017-12-04T22:59:52.969Z,20.2
2017-12-04T23:01:01.908Z,20.13
2017-12-04T23:02:11.107Z,20.21
2017-12-04T23:03:20.533Z,20.2
2017-12-04T23:04:29.195Z,20.18
2017-12-04T23:05:38.638Z,20.11
2017-12-04T23:06:48.081Z,20.24
2017-12-04T23:07:57.511Z,20.21
2017-12-04T23:09:06.945Z,20.17
2017-12-04T23:10:16.122Z,20.21
2017-12-04T23:11:25.564Z,20.21
2017-12-04T23:12:34.487Z,20.11
2017-12-04T23:13:44.255Z,20.11
2017-12-04T23:14:52.935Z,20.14
2017-12-04T23:16:01.849Z,20.14
2017-12-04T23:17:10.825Z,20.11
2017-12-04T23:18:19.727Z,20.16
2017-12-04T23:19:28.636Z,20.11
2017-12-04T23:20:37.546Z,20.2
2017-12-04T23:21:46.457Z,20.08
2017-12-04T23:22:55.642Z,20.16
2017-12-04T23:24:04.818Z,20.11
2017-12-04T23:25:13.740Z,20.2
2017-12-04T23:26:23.045Z,20.2
2017-12-04T23:27:32.781Z,20.08
2017-12-04T23:28:41.961Z,20.14
2017-12-04T23:29:50.867Z,20.1
2017-12-04T23:30:59.797Z,20.2
2017-12-04T23:32:09.231Z,20.13
2017-12-04T23:33:18.492Z,20.11
2017-12-04T23:34:27.474Z,20.1
2017-12-04T23:35:37.623Z,20.11
2017-12-04T23:36:47.524Z,20.11
2017-12-04T23:37:56.984Z,20.1
2017-12-04T23:39:05.887Z,20.13
2017-12-04T23:40:16.074Z,20.16
2017-12-04T23:41:25.352Z,20.06
2017-12-04T23:42:35.101Z,20.08
2017-12-04T23:43:44.244Z,20.08
2017-12-04T23:44:53.403Z,20.08
2017-12-04T23:46:02.572Z,20.21
2017-12-04T23:47:11.741Z,20.16
2017-12-04T23:48:21.159Z,20.14
2017-12-04T23:49:30.338Z,20.08
2017-12-04T23:50:39.534Z,20.17
2017-12-04T23:51:48.464Z,20.11
2017-12-04T23:52:57.111Z,20.11
2017-12-04T23:54:06.569Z,20.08
2017-12-04T23:55:15.501Z,20.21
2017-12-04T23:56:24.691Z,20.18
2017-12-04T23:57:33.617Z,20.06
2017-12-04T23:58:42.277Z,20.13
2017-12-04T23:59:51.188Z,20.17
